Time;durP1;ratioP1;P1;durP2;ratioP2;P2;SDS_P1;SDS_P2;PMS_P1;PMS_P2;Temp;Humidity;BMP_temperature;BMP_pressure;BME280_temperature;BME280_humidity;BME280_pressure;Samples;Min_cycle;Max_cycle;Signal;HPM_P1;HPM_P2
2021/06/28 00:01:43;;;;;;;1.00;0.40;;;;;;;;;;5035146;28;20096;-64
2021/06/28 00:04:09;;;;;;;1.60;0.90;;;;;;;;;;5035158;28;20718;-64
2021/06/28 00:06:34;;;;;;;0.93;0.60;;;;;;;;;;5035237;28;20270;-64
2021/06/28 00:08:59;;;;;;;0.80;0.60;;;;;;;;;;5035007;28;20423;-64
2021/06/28 00:11:26;;;;;;;0.85;0.60;;;;;;;;;;5035202;28;20261;-63
2021/06/28 00:13:53;;;;;;;1.30;0.82;;;;;;;;;;5034968;28;20152;-64
2021/06/28 00:16:19;;;;;;;1.95;0.80;;;;;;;;;;5035133;28;20022;-64
2021/06/28 00:18:44;;;;;;;1.55;0.82;;;;;;;;;;5034924;28;20566;-64
2021/06/28 00:21:09;;;;;;;1.55;0.80;;;;;;;;;;5034916;28;20021;-64
2021/06/28 00:23:35;;;;;;;1.65;0.80;;;;;;;;;;5034810;28;20059;-64
2021/06/28 00:26:00;;;;;;;1.30;0.70;;;;;;;;;;5033666;28;20032;-64
2021/06/28 00:28:26;;;;;;;1.67;0.70;;;;;;;;;;5034857;28;20093;-64
2021/06/28 00:30:52;;;;;;;0.67;0.43;;;;;;;;;;5034618;28;20163;-64
2021/06/28 00:33:18;;;;;;;1.48;1.02;;;;;;;;;;5034791;28;20247;-64
2021/06/28 00:35:43;;;;;;;1.67;0.80;;;;;;;;;;5034649;28;20025;-64
2021/06/28 00:38:09;;;;;;;1.05;0.60;;;;;;;;;;5034912;28;20025;-64
2021/06/28 00:40:34;;;;;;;3.45;0.80;;;;;;;;;;5034866;28;20377;-65
2021/06/28 00:43:00;;;;;;;1.52;0.70;;;;;;;;;;5034531;28;20029;-64
2021/06/28 00:45:26;;;;;;;0.85;0.45;;;;;;;;;;5034495;28;20376;-63
2021/06/28 00:47:53;;;;;;;1.38;0.35;;;;;;;;;;5034222;28;20032;-64
2021/06/28 00:50:19;;;;;;;2.67;0.70;;;;;;;;;;5034512;28;20032;-64
2021/06/28 00:52:46;;;;;;;1.95;0.90;;;;;;;;;;5034318;28;20448;-64
2021/06/28 00:55:11;;;;;;;0.93;0.47;;;;;;;;;;5034316;28;20021;-63
2021/06/28 00:57:36;;;;;;;3.40;0.68;;;;;;;;;;5034330;28;20449;-65
2021/06/28 01:00:03;;;;;;;1.00;0.50;;;;;;;;;;5034116;28;20029;-64
2021/06/28 01:02:29;;;;;;;0.93;0.50;;;;;;;;;;5034163;28;20465;-64
2021/06/28 01:04:54;;;;;;;0.85;0.55;;;;;;;;;;5033966;28;20100;-64
2021/06/28 01:07:19;;;;;;;2.65;0.65;;;;;;;;;;5034131;28;20009;-65
2021/06/28 01:09:44;;;;;;;1.87;0.57;;;;;;;;;;5033980;28;20100;-62
2021/06/28 01:12:10;;;;;;;1.50;0.70;;;;;;;;;;5033923;28;20254;-62
2021/06/28 01:14:36;;;;;;;1.23;0.75;;;;;;;;;;5033948;28;20112;-62
2021/06/28 01:17:01;;;;;;;0.98;0.60;;;;;;;;;;5033807;28;20032;-62
2021/06/28 01:19:28;;;;;;;1.23;0.50;;;;;;;;;;5034116;28;20060;-62
2021/06/28 01:21:54;;;;;;;0.82;0.40;;;;;;;;;;5033684;28;20030;-63
2021/06/28 01:24:19;;;;;;;0.57;0.43;;;;;;;;;;5033431;28;20052;-65
2021/06/28 01:26:45;;;;;;;1.58;0.55;;;;;;;;;;5033478;28;20461;-66
2021/06/28 01:29:10;;;;;;;1.15;0.60;;;;;;;;;;5033667;28;20041;-63
2021/06/28 01:31:35;;;;;;;1.60;0.90;;;;;;;;;;5033659;28;20048;-62
2021/06/28 01:34:00;;;;;;;1.67;0.85;;;;;;;;;;5033442;28;20101;-63
2021/06/28 01:36:25;;;;;;;1.10;0.70;;;;;;;;;;5032166;28;20025;-63
2021/06/28 01:38:53;;;;;;;0.80;0.57;;;;;;;;;;5032091;28;20026;-63
2021/06/28 01:41:18;;;;;;;1.55;0.70;;;;;;;;;;5033556;28;20035;-63
2021/06/28 01:43:43;;;;;;;2.13;0.80;;;;;;;;;;5033353;28;20104;-63
2021/06/28 01:46:08;;;;;;;1.35;0.63;;;;;;;;;;5033168;28;20274;-64
2021/06/28 01:48:36;;;;;;;0.90;0.60;;;;;;;;;;5033398;28;20021;-63
2021/06/28 01:51:03;;;;;;;1.45;0.70;;;;;;;;;;5033171;28;20463;-63
2021/06/28 01:53:28;;;;;;;1.85;0.80;;;;;;;;;;5033251;28;20055;-63
2021/06/28 01:55:53;;;;;;;1.30;0.80;;;;;;;;;;5033034;28;20100;-63
2021/06/28 01:58:18;;;;;;;0.68;0.50;;;;;;;;;;5033134;28;20598;-63
2021/06/28 02:00:45;;;;;;;1.42;0.90;;;;;;;;;;5032970;28;20467;-63
2021/06/28 02:03:14;;;;;;;0.95;0.60;;;;;;;;;;5033072;28;20021;-62
2021/06/28 02:05:47;;;;;;;1.48;0.60;;;;;;;;;;5032974;28;20567;-63
2021/06/28 02:08:13;;;;;;;1.50;0.63;;;;;;;;;;5032907;28;20025;-62
2021/06/28 02:10:40;;;;;;;1.45;0.65;;;;;;;;;;5032978;28;20018;-63
2021/06/28 02:13:05;;;;;;;1.90;0.82;;;;;;;;;;5032642;28;20419;-62
2021/06/28 02:15:31;;;;;;;1.95;0.60;;;;;;;;;;5032932;28;20024;-63
2021/06/28 02:17:57;;;;;;;2.95;0.57;;;;;;;;;;5032667;28;20052;-63
2021/06/28 02:20:22;;;;;;;0.82;0.50;;;;;;;;;;5032641;28;20334;-63
2021/06/28 02:22:49;;;;;;;0.73;0.50;;;;;;;;;;5032567;28;20085;-62
2021/06/28 02:25:14;;;;;;;1.10;0.70;;;;;;;;;;5032655;28;20488;-64
2021/06/28 02:27:39;;;;;;;2.00;0.60;;;;;;;;;;5032654;28;20018;-64
2021/06/28 02:30:05;;;;;;;1.90;0.70;;;;;;;;;;5032443;28;20246;-64
2021/06/28 02:32:31;;;;;;;0.90;0.70;;;;;;;;;;5032741;28;20453;-63
2021/06/28 02:34:56;;;;;;;2.27;0.77;;;;;;;;;;5032445;28;20108;-63
2021/06/28 02:37:21;;;;;;;1.77;0.80;;;;;;;;;;5032599;28;20255;-64
2021/06/28 02:39:46;;;;;;;0.85;0.63;;;;;;;;;;5032487;28;20718;-64
2021/06/28 02:42:11;;;;;;;1.48;0.90;;;;;;;;;;5032506;28;20030;-63
2021/06/28 02:44:36;;;;;;;0.93;0.50;;;;;;;;;;5032553;28;20095;-62
2021/06/28 02:47:02;;;;;;;0.77;0.60;;;;;;;;;;5032218;28;20267;-62
2021/06/28 02:49:27;;;;;;;2.00;0.90;;;;;;;;;;5031945;28;20096;-63
2021/06/28 02:51:52;;;;;;;1.27;0.75;;;;;;;;;;5032237;28;20465;-62
2021/06/28 02:54:17;;;;;;;1.55;0.75;;;;;;;;;;5032397;28;20033;-62
2021/06/28 02:56:42;;;;;;;1.07;0.40;;;;;;;;;;5032363;28;20033;-63
2021/06/28 02:59:11;;;;;;;1.75;0.70;;;;;;;;;;5032185;28;20263;-63
2021/06/28 03:01:36;;;;;;;2.22;0.52;;;;;;;;;;5032422;28;20028;-62
2021/06/28 03:04:01;;;;;;;2.10;0.63;;;;;;;;;;5032110;28;20025;-62
2021/06/28 03:06:26;;;;;;;1.97;0.80;;;;;;;;;;5030868;28;20466;-63
2021/06/28 03:08:52;;;;;;;1.05;0.90;;;;;;;;;;5032364;28;20258;-62
2021/06/28 03:11:19;;;;;;;1.13;0.60;;;;;;;;;;5032201;28;20021;-62
2021/06/28 03:13:44;;;;;;;2.00;0.70;;;;;;;;;;5032159;28;20021;-62
2021/06/28 03:16:10;;;;;;;0.93;0.60;;;;;;;;;;5030895;28;20370;-63
2021/06/28 03:18:35;;;;;;;2.22;1.40;;;;;;;;;;5032065;28;20026;-62
2021/06/28 03:21:02;;;;;;;3.53;1.13;;;;;;;;;;5032278;28;20013;-63
2021/06/28 03:23:27;;;;;;;2.05;0.75;;;;;;;;;;5031986;28;20048;-63
2021/06/28 03:25:52;;;;;;;2.92;0.70;;;;;;;;;;5031722;28;20029;-63
2021/06/28 03:28:18;;;;;;;2.60;0.80;;;;;;;;;;5032152;28;20017;-63
2021/06/28 03:30:44;;;;;;;1.30;0.80;;;;;;;;;;5031917;28;20056;-64
2021/06/28 03:33:09;;;;;;;0.50;0.35;;;;;;;;;;5032258;28;20112;-63
2021/06/28 03:35:34;;;;;;;0.98;0.57;;;;;;;;;;5032086;28;20037;-63
2021/06/28 03:38:00;;;;;;;0.70;0.50;;;;;;;;;;5031783;28;20373;-65
2021/06/28 03:40:25;;;;;;;0.40;0.40;;;;;;;;;;5031967;28;20059;-65
2021/06/28 03:42:50;;;;;;;1.57;0.33;;;;;;;;;;5031838;28;20021;-63
2021/06/28 03:45:15;;;;;;;1.27;0.70;;;;;;;;;;5031853;28;20361;-63
2021/06/28 03:47:41;;;;;;;1.05;0.30;;;;;;;;;;5031865;28;20247;-64
2021/06/28 03:50:07;;;;;;;2.28;0.55;;;;;;;;;;5031753;28;20112;-64
2021/06/28 03:52:32;;;;;;;1.38;0.40;;;;;;;;;;5031957;28;20116;-63
2021/06/28 03:54:58;;;;;;;1.00;0.60;;;;;;;;;;5031706;28;20500;-63
2021/06/28 03:57:23;;;;;;;1.88;0.50;;;;;;;;;;5031755;28;20255;-64
2021/06/28 03:59:48;;;;;;;1.65;0.40;;;;;;;;;;5031714;28;20097;-65
2021/06/28 04:02:13;;;;;;;1.75;0.73;;;;;;;;;;5034653;28;20060;-64
2021/06/28 04:04:39;;;;;;;0.40;0.35;;;;;;;;;;5035328;28;20104;-63
2021/06/28 04:07:04;;;;;;;1.23;0.30;;;;;;;;;;5035646;28;20108;-64
2021/06/28 04:09:29;;;;;;;1.63;0.50;;;;;;;;;;5035262;28;20255;-64
2021/06/28 04:11:54;;;;;;;1.03;0.50;;;;;;;;;;5034954;28;20452;-63
2021/06/28 04:14:19;;;;;;;1.43;0.50;;;;;;;;;;5035154;28;20342;-63
2021/06/28 04:16:45;;;;;;;0.43;0.40;;;;;;;;;;5035008;28;20265;-64
2021/06/28 04:19:11;;;;;;;2.00;0.70;;;;;;;;;;5034996;28;20065;-65
2021/06/28 04:21:36;;;;;;;1.00;0.30;;;;;;;;;;5035072;28;20053;-63
2021/06/28 04:24:03;;;;;;;1.23;0.50;;;;;;;;;;5034664;28;20720;-63
2021/06/28 04:26:29;;;;;;;1.58;0.50;;;;;;;;;;5033635;28;20274;-64
2021/06/28 04:28:54;;;;;;;1.92;0.52;;;;;;;;;;5034636;28;20017;-64
2021/06/28 04:31:20;;;;;;;2.20;0.50;;;;;;;;;;5034827;28;20021;-63
2021/06/28 04:33:45;;;;;;;0.93;0.30;;;;;;;;;;5034660;28;20058;-63
2021/06/28 04:36:10;;;;;;;0.60;0.40;;;;;;;;;;5034670;28;20413;-64
2021/06/28 04:38:35;;;;;;;0.67;0.23;;;;;;;;;;5034723;28;20259;-65
2021/06/28 04:41:00;;;;;;;2.25;0.60;;;;;;;;;;5034510;28;20096;-65
2021/06/28 04:43:25;;;;;;;0.60;0.50;;;;;;;;;;5033327;28;20026;-63
2021/06/28 04:45:51;;;;;;;1.17;0.30;;;;;;;;;;5034263;28;20832;-64
2021/06/28 04:48:16;;;;;;;1.53;0.53;;;;;;;;;;5034472;28;20021;-65
2021/06/28 04:50:41;;;;;;;1.95;0.57;;;;;;;;;;5034452;28;20599;-64
2021/06/28 04:53:06;;;;;;;0.10;0.10;;;;;;;;;;5034320;28;20388;-64
2021/06/28 04:55:31;;;;;;;2.93;0.57;;;;;;;;;;5034385;28;20389;-65
2021/06/28 04:57:57;;;;;;;1.17;0.40;;;;;;;;;;5034160;28;20037;-65
2021/06/28 05:00:23;;;;;;;1.23;0.50;;;;;;;;;;5034269;28;20021;-65
2021/06/28 05:02:48;;;;;;;0.50;0.20;;;;;;;;;;5034129;28;20025;-64
2021/06/28 05:05:14;;;;;;;1.85;0.70;;;;;;;;;;5034109;28;20013;-64
2021/06/28 05:07:40;;;;;;;1.60;0.35;;;;;;;;;;5034141;28;20022;-65
2021/06/28 05:10:06;;;;;;;1.27;0.45;;;;;;;;;;5034210;28;20022;-65
2021/06/28 05:12:31;;;;;;;0.25;0.20;;;;;;;;;;5032358;28;20515;-65
2021/06/28 05:14:56;;;;;;;0.80;0.30;;;;;;;;;;5034127;28;20014;-64
2021/06/28 05:17:21;;;;;;;0.65;0.32;;;;;;;;;;5033980;28;20025;-65
2021/06/28 05:19:46;;;;;;;0.93;0.32;;;;;;;;;;5033800;28;20018;-65
2021/06/28 05:22:12;;;;;;;3.20;0.77;;;;;;;;;;5033771;28;20018;-64
2021/06/28 05:24:37;;;;;;;1.45;0.28;;;;;;;;;;5033507;28;20267;-64
2021/06/28 05:27:02;;;;;;;1.37;0.53;;;;;;;;;;5033583;28;20022;-65
2021/06/28 05:29:28;;;;;;;2.80;0.40;;;;;;;;;;5033742;28;20547;-66
2021/06/28 05:31:53;;;;;;;1.55;0.40;;;;;;;;;;5033459;28;20018;-65
2021/06/28 05:34:18;;;;;;;1.55;0.50;;;;;;;;;;5033612;28;20029;-66
2021/06/28 05:36:44;;;;;;;2.08;0.60;;;;;;;;;;5033563;28;20017;-66
2021/06/28 05:39:09;;;;;;;2.03;0.50;;;;;;;;;;5033388;28;20087;-65
2021/06/28 05:41:34;;;;;;;1.73;0.80;;;;;;;;;;5033565;28;20568;-66
2021/06/28 05:43:59;;;;;;;0.35;0.30;;;;;;;;;;5032450;28;20056;-66
2021/06/28 05:46:25;;;;;;;2.77;0.40;;;;;;;;;;5032238;28;20056;-66
2021/06/28 05:48:50;;;;;;;2.45;0.55;;;;;;;;;;5031658;28;20607;-65
2021/06/28 05:51:18;;;;;;;0.95;0.63;;;;;;;;;;5031537;28;20022;-65
2021/06/28 05:53:43;;;;;;;0.73;0.30;;;;;;;;;;5033083;28;20010;-66
2021/06/28 05:56:09;;;;;;;1.65;0.60;;;;;;;;;;5033078;28;20025;-66
2021/06/28 05:58:34;;;;;;;1.27;0.32;;;;;;;;;;5033114;28;20080;-66
2021/06/28 06:00:59;;;;;;;0.80;0.40;;;;;;;;;;5032827;28;20029;-65
2021/06/28 06:03:25;;;;;;;1.40;0.52;;;;;;;;;;5032260;28;20026;-66
2021/06/28 06:05:52;;;;;;;1.58;0.57;;;;;;;;;;5032823;28;20037;-66
2021/06/28 06:08:23;;;;;;;1.17;0.50;;;;;;;;;;5033062;28;20009;-65
2021/06/28 06:10:48;;;;;;;2.08;0.70;;;;;;;;;;5032901;28;20029;-65
2021/06/28 06:13:13;;;;;;;0.93;0.30;;;;;;;;;;5019056;28;20014;-66
2021/06/28 06:15:38;;;;;;;0.83;0.40;;;;;;;;;;5020244;28;20271;-66
2021/06/28 06:18:03;;;;;;;1.40;0.50;;;;;;;;;;5028884;28;20823;-65
2021/06/28 06:20:29;;;;;;;0.75;0.47;;;;;;;;;;5013779;28;20299;-65
2021/06/28 06:22:54;;;;;;;1.23;0.40;;;;;;;;;;5013290;28;20038;-65
2021/06/28 06:25:19;;;;;;;1.75;0.40;;;;;;;;;;5012579;28;20067;-66
2021/06/28 06:27:44;;;;;;;1.10;0.50;;;;;;;;;;5013685;28;20054;-66
2021/06/28 06:30:11;;;;;;;1.70;0.47;;;;;;;;;;5020212;28;20033;-65
2021/06/28 06:32:36;;;;;;;2.72;0.80;;;;;;;;;;5014505;28;20255;-65
2021/06/28 06:35:01;;;;;;;2.30;0.60;;;;;;;;;;5032017;28;20018;-66
2021/06/28 06:37:26;;;;;;;1.10;0.40;;;;;;;;;;5030941;28;20621;-66
2021/06/28 06:39:51;;;;;;;1.55;0.50;;;;;;;;;;5031114;28;20298;-63
2021/06/28 06:42:17;;;;;;;1.43;0.50;;;;;;;;;;5023297;28;20022;-64
2021/06/28 06:44:42;;;;;;;2.35;0.47;;;;;;;;;;5017778;28;20788;-63
2021/06/28 06:47:08;;;;;;;1.50;0.40;;;;;;;;;;5012395;28;20030;-64
2021/06/28 06:49:33;;;;;;;2.58;0.45;;;;;;;;;;5019284;28;20048;-63
2021/06/28 06:51:58;;;;;;;1.65;0.38;;;;;;;;;;5031069;28;20029;-63
2021/06/28 06:54:23;;;;;;;3.07;0.60;;;;;;;;;;5026315;28;20029;-65
2021/06/28 06:56:48;;;;;;;2.20;0.70;;;;;;;;;;5023120;28;20045;-64
2021/06/28 06:59:14;;;;;;;2.00;0.57;;;;;;;;;;5012460;28;20695;-63
2021/06/28 07:01:41;;;;;;;2.00;0.40;;;;;;;;;;5025433;28;20432;-63
2021/06/28 07:04:06;;;;;;;2.67;0.70;;;;;;;;;;5030268;28;20263;-64
2021/06/28 07:06:31;;;;;;;2.40;0.77;;;;;;;;;;5032337;28;20090;-64
2021/06/28 07:08:56;;;;;;;3.13;0.63;;;;;;;;;;5024889;28;20022;-64
2021/06/28 07:11:24;;;;;;;1.63;0.40;;;;;;;;;;5032776;28;20025;-64
2021/06/28 07:13:50;;;;;;;3.20;0.60;;;;;;;;;;5031566;28;20017;-64
2021/06/28 07:16:15;;;;;;;3.55;0.65;;;;;;;;;;5031466;28;20021;-64
2021/06/28 07:18:41;;;;;;;2.25;0.80;;;;;;;;;;5027695;28;20036;-63
2021/06/28 07:21:06;;;;;;;1.20;0.38;;;;;;;;;;5028368;28;20032;-62
2021/06/28 07:23:31;;;;;;;1.52;0.40;;;;;;;;;;5030904;28;20060;-67
2021/06/28 07:25:57;;;;;;;1.35;0.80;;;;;;;;;;5029801;28;20025;-67
2021/06/28 07:28:23;;;;;;;1.33;0.60;;;;;;;;;;5030341;28;20029;-67
2021/06/28 07:30:48;;;;;;;2.42;0.70;;;;;;;;;;5031639;28;20013;-67
2021/06/28 07:33:13;;;;;;;2.17;0.60;;;;;;;;;;5018129;28;20022;-68
2021/06/28 07:35:38;;;;;;;0.98;0.40;;;;;;;;;;5020665;28;20635;-67
2021/06/28 07:38:03;;;;;;;1.40;0.60;;;;;;;;;;5028481;28;20411;-67
2021/06/28 07:40:28;;;;;;;3.07;0.50;;;;;;;;;;5027217;28;20059;-67
2021/06/28 07:42:54;;;;;;;0.53;0.30;;;;;;;;;;5026930;28;20598;-68
2021/06/28 07:45:20;;;;;;;1.43;0.37;;;;;;;;;;5039552;28;20024;-67
2021/06/28 07:47:46;;;;;;;1.83;0.50;;;;;;;;;;5051240;28;20257;-68
2021/06/28 07:50:12;;;;;;;2.05;0.40;;;;;;;;;;5035606;28;20398;-67
2021/06/28 07:52:37;;;;;;;2.00;0.40;;;;;;;;;;5040281;28;20029;-68
2021/06/28 07:55:04;;;;;;;3.58;0.85;;;;;;;;;;5031100;28;20025;-68
2021/06/28 07:57:29;;;;;;;5.93;1.02;;;;;;;;;;5026779;28;20029;-68
2021/06/28 07:59:54;;;;;;;5.40;1.00;;;;;;;;;;5025256;28;20022;-68
2021/06/28 08:02:20;;;;;;;3.60;1.00;;;;;;;;;;5033556;28;20377;-68
2021/06/28 08:04:45;;;;;;;2.50;0.77;;;;;;;;;;5032853;28;20013;-68
2021/06/28 08:07:10;;;;;;;1.27;0.50;;;;;;;;;;5033485;28;20733;-67
2021/06/28 08:09:35;;;;;;;1.27;0.63;;;;;;;;;;5033481;28;20123;-67
2021/06/28 08:12:00;;;;;;;1.00;0.33;;;;;;;;;;5033210;28;20024;-67
2021/06/28 08:14:26;;;;;;;1.70;1.00;;;;;;;;;;5033010;28;20028;-68
2021/06/28 08:16:51;;;;;;;2.63;0.50;;;;;;;;;;5033666;28;20595;-68
2021/06/28 08:19:16;;;;;;;1.40;0.57;;;;;;;;;;5034370;28;20017;-67
2021/06/28 08:21:41;;;;;;;2.00;0.57;;;;;;;;;;5028180;28;20407;-67
2021/06/28 08:24:07;;;;;;;1.20;0.57;;;;;;;;;;5014941;28;20050;-68
2021/06/28 08:26:33;;;;;;;2.20;0.60;;;;;;;;;;5015408;28;20033;-68
2021/06/28 08:29:02;;;;;;;2.67;0.40;;;;;;;;;;5014955;28;20088;-68
2021/06/28 08:31:27;;;;;;;0.95;0.43;;;;;;;;;;5027565;28;20014;-68
2021/06/28 08:33:52;;;;;;;3.33;0.67;;;;;;;;;;5034665;28;20091;-68
2021/06/28 08:36:18;;;;;;;0.90;0.50;;;;;;;;;;5034666;28;20060;-68
2021/06/28 08:38:43;;;;;;;2.13;0.80;;;;;;;;;;5034448;28;20479;-68
2021/06/28 08:41:10;;;;;;;0.70;0.40;;;;;;;;;;5034609;28;20327;-68
2021/06/28 08:43:36;;;;;;;1.38;0.40;;;;;;;;;;5034099;28;20087;-67
2021/06/28 08:46:01;;;;;;;1.35;0.47;;;;;;;;;;5033430;28;20033;-68
2021/06/28 08:48:26;;;;;;;1.40;0.67;;;;;;;;;;5033538;28;20473;-68
2021/06/28 08:50:52;;;;;;;2.60;0.70;;;;;;;;;;5034112;28;20316;-67
2021/06/28 08:53:20;;;;;;;2.58;0.73;;;;;;;;;;5034265;28;20036;-68
2021/06/28 08:55:46;;;;;;;1.42;0.43;;;;;;;;;;5033600;28;20032;-68
2021/06/28 08:58:11;;;;;;;2.30;1.00;;;;;;;;;;5034007;28;20022;-68
2021/06/28 09:00:36;;;;;;;2.60;0.57;;;;;;;;;;5034350;28;20247;-68
2021/06/28 09:03:03;;;;;;;1.90;0.70;;;;;;;;;;5034151;28;20449;-68
2021/06/28 09:05:28;;;;;;;0.88;0.40;;;;;;;;;;5033771;28;20459;-69
2021/06/28 09:08:10;;;;;;;2.80;0.70;;;;;;;;;;5033795;28;20440;-67
2021/06/28 09:10:39;;;;;;;2.58;0.98;;;;;;;;;;5032872;28;20028;-68
2021/06/28 09:13:05;;;;;;;1.88;0.70;;;;;;;;;;5033670;28;20025;-68
2021/06/28 09:15:37;;;;;;;1.10;0.65;;;;;;;;;;5033621;28;20022;-69
2021/06/28 09:18:20;;;;;;;0.68;0.50;;;;;;;;;;5041145;28;20029;-68
2021/06/28 09:20:45;;;;;;;1.60;0.60;;;;;;;;;;5048981;28;20476;-68
2021/06/28 09:23:25;;;;;;;1.50;0.73;;;;;;;;;;5053576;28;20065;-68
2021/06/28 09:25:52;;;;;;;2.85;0.70;;;;;;;;;;5046261;28;20574;-69
2021/06/28 09:28:31;;;;;;;1.73;0.50;;;;;;;;;;5052742;28;20071;-68
2021/06/28 09:30:56;;;;;;;1.73;0.73;;;;;;;;;;5042301;28;20025;-67
2021/06/28 09:33:22;;;;;;;1.73;0.77;;;;;;;;;;5037813;28;20016;-66
2021/06/28 09:35:47;;;;;;;1.30;0.43;;;;;;;;;;5033526;28;20041;-67
2021/06/28 09:38:32;;;;;;;3.10;0.75;;;;;;;;;;5033314;28;20037;-67
2021/06/28 09:41:17;;;;;;;2.58;0.70;;;;;;;;;;5032748;28;20496;-67
2021/06/28 09:43:42;;;;;;;2.55;0.70;;;;;;;;;;5032725;28;20030;-66
2021/06/28 09:46:15;;;;;;;1.23;0.40;;;;;;;;;;5032899;28;20043;-65
2021/06/28 09:48:45;;;;;;;2.38;0.98;;;;;;;;;;5031804;28;20029;-66
2021/06/28 09:51:22;;;;;;;0.90;0.55;;;;;;;;;;5017851;28;20022;-66
2021/06/28 09:53:48;;;;;;;1.67;0.50;;;;;;;;;;5047563;28;20021;-66
2021/06/28 09:56:33;;;;;;;2.85;0.70;;;;;;;;;;5038911;28;20112;-66
2021/06/28 09:58:58;;;;;;;2.38;0.50;;;;;;;;;;5013181;28;20032;-66
2021/06/28 10:01:25;;;;;;;1.83;0.60;;;;;;;;;;5030926;28;20018;-66
2021/06/28 10:03:53;;;;;;;1.02;0.52;;;;;;;;;;5031814;28;20031;-66
2021/06/28 10:08:45;;;;;;;2.37;0.53;;;;;;;;;;5032168;28;20006;-66
2021/06/28 10:11:10;;;;;;;2.28;0.65;;;;;;;;;;5032561;28;20572;-66
2021/06/28 10:13:36;;;;;;;0.93;0.35;;;;;;;;;;5032473;28;20096;-65
2021/06/28 10:16:01;;;;;;;2.70;0.45;;;;;;;;;;5032187;28;20018;-65
2021/06/28 10:18:26;;;;;;;0.50;0.22;;;;;;;;;;5031664;28;20099;-66
2021/06/28 10:20:51;;;;;;;2.93;0.70;;;;;;;;;;5032741;28;20194;-67
2021/06/28 10:23:16;;;;;;;1.70;0.60;;;;;;;;;;5031381;28;20300;-66
2021/06/28 10:25:42;;;;;;;1.13;0.50;;;;;;;;;;5032612;28;20733;-66
2021/06/28 10:28:22;;;;;;;2.33;0.52;;;;;;;;;;5032380;28;20485;-65
2021/06/28 10:30:47;;;;;;;1.67;0.60;;;;;;;;;;5032540;28;20013;-66
2021/06/28 10:33:14;;;;;;;1.73;0.85;;;;;;;;;;5032653;28;20048;-66
2021/06/28 10:35:41;;;;;;;1.73;0.40;;;;;;;;;;5032624;28;20013;-66
2021/06/28 10:38:08;;;;;;;2.03;0.52;;;;;;;;;;5032472;28;20017;-65
2021/06/28 10:40:50;;;;;;;1.52;0.60;;;;;;;;;;5032653;28;20530;-66
2021/06/28 10:43:26;;;;;;;1.08;0.30;;;;;;;;;;5032540;28;20021;-65
2021/06/28 10:45:51;;;;;;;0.80;0.50;;;;;;;;;;5031128;28;20064;-64
2021/06/28 10:48:18;;;;;;;2.22;0.40;;;;;;;;;;5032557;28;20021;-65
2021/06/28 10:50:46;;;;;;;2.15;0.88;;;;;;;;;;5031108;28;20018;-66
2021/06/28 10:53:11;;;;;;;1.85;0.43;;;;;;;;;;5032671;28;20025;-66
2021/06/28 10:55:37;;;;;;;1.97;0.50;;;;;;;;;;5032406;28;20592;-65
2021/06/28 10:58:22;;;;;;;1.65;0.43;;;;;;;;;;5032253;28;20278;-65
2021/06/28 11:00:51;;;;;;;1.02;0.45;;;;;;;;;;5031498;28;20025;-65
2021/06/28 11:03:22;;;;;;;1.33;0.70;;;;;;;;;;5030157;28;20016;-65
2021/06/28 11:06:05;;;;;;;2.33;0.90;;;;;;;;;;5027805;28;20029;-65
2021/06/28 11:08:31;;;;;;;1.38;0.40;;;;;;;;;;5021500;28;20063;-65
2021/06/28 11:10:56;;;;;;;1.60;0.53;;;;;;;;;;5021622;28;20022;-66
2021/06/28 11:13:35;;;;;;;3.47;0.50;;;;;;;;;;5025601;28;20274;-65
2021/06/28 11:16:19;;;;;;;1.58;0.55;;;;;;;;;;5034202;28;20099;-65
2021/06/28 11:18:44;;;;;;;1.45;0.70;;;;;;;;;;5022780;28;20179;-65
2021/06/28 11:21:10;;;;;;;1.33;0.50;;;;;;;;;;5032612;28;20653;-64
2021/06/28 11:23:35;;;;;;;0.93;0.65;;;;;;;;;;5032728;28;20042;-65
2021/06/28 11:26:00;;;;;;;1.60;0.40;;;;;;;;;;5023799;28;20117;-65
2021/06/28 11:28:34;;;;;;;2.05;0.50;;;;;;;;;;5015879;28;20076;-68
2021/06/28 11:31:05;;;;;;;1.75;0.77;;;;;;;;;;5039415;28;20028;-67
2021/06/28 11:33:50;;;;;;;1.45;0.50;;;;;;;;;;5034991;28;20144;-68
2021/06/28 11:36:35;;;;;;;1.02;0.60;;;;;;;;;;5026904;28;20038;-67
2021/06/28 11:39:00;;;;;;;;;;;;;;;;;;5032182;28;20053;-68
2021/06/28 11:41:27;;;;;;;1.33;0.53;;;;;;;;;;5023064;28;19943;-69
2021/06/28 11:43:53;;;;;;;2.40;0.65;;;;;;;;;;5028617;28;20257;-69
2021/06/28 11:46:31;;;;;;;0.98;0.38;;;;;;;;;;5027419;28;20026;-67
2021/06/28 11:49:06;;;;;;;0.68;0.57;;;;;;;;;;5026907;28;20093;-67
2021/06/28 11:51:32;;;;;;;1.75;0.50;;;;;;;;;;5031743;28;20048;-68
2021/06/28 11:54:04;;;;;;;2.97;0.60;;;;;;;;;;5029314;28;20025;-70
2021/06/28 11:56:39;;;;;;;1.67;0.20;;;;;;;;;;5023751;28;20021;-76
2021/06/28 11:59:05;;;;;;;1.08;0.50;;;;;;;;;;5031891;28;20017;-70
2021/06/28 12:01:32;;;;;;;0.40;0.30;;;;;;;;;;5033721;28;20465;-71
2021/06/28 12:04:01;;;;;;;1.17;0.55;;;;;;;;;;5047797;28;20068;-73
2021/06/28 12:06:28;;;;;;;0.70;0.32;;;;;;;;;;5016749;28;20044;-75
2021/06/28 12:09:26;;;;;;;1.85;0.82;;;;;;;;;;5023647;28;20033;-71
2021/06/28 12:11:51;;;;;;;1.50;0.35;;;;;;;;;;4994504;28;20038;-67
2021/06/28 12:14:37;;;;;;;2.35;0.50;;;;;;;;;;4994649;28;20382;-68
2021/06/28 12:17:18;;;;;;;2.03;0.43;;;;;;;;;;4970938;28;20094;-71
2021/06/28 12:19:47;;;;;;;3.80;0.73;;;;;;;;;;4978228;28;20038;-65
2021/06/28 12:22:14;;;;;;;1.52;0.57;;;;;;;;;;4961735;28;20027;-65
2021/06/28 12:24:39;;;;;;;8.50;0.93;;;;;;;;;;4960906;28;20066;-59
2021/06/28 12:27:06;;;;;;;2.75;0.40;;;;;;;;;;4973223;28;20466;-59
2021/06/28 12:29:33;;;;;;;3.17;0.73;;;;;;;;;;4974684;28;20030;-59
2021/06/28 12:32:05;;;;;;;7.25;0.98;;;;;;;;;;4960555;28;20027;-59
2021/06/28 12:34:31;;;;;;;1.88;0.88;;;;;;;;;;4974568;28;20050;-60
2021/06/28 12:36:56;;;;;;;6.50;0.80;;;;;;;;;;4966139;28;20549;-60
2021/06/28 12:39:23;;;;;;;7.70;0.93;;;;;;;;;;4972767;28;20022;-60
2021/06/28 12:41:48;;;;;;;10.27;0.70;;;;;;;;;;4972759;28;20433;-58
2021/06/28 12:44:13;;;;;;;2.58;0.50;;;;;;;;;;4985822;28;20026;-60
2021/06/28 12:46:38;;;;;;;5.82;0.70;;;;;;;;;;4993914;28;20591;-62
2021/06/28 12:49:04;;;;;;;3.90;0.77;;;;;;;;;;5034169;28;20021;-60
2021/06/28 12:51:29;;;;;;;3.28;0.70;;;;;;;;;;5028939;28;20022;-60
2021/06/28 12:53:54;;;;;;;1.50;0.40;;;;;;;;;;5032030;28;20025;-60
2021/06/28 12:56:20;;;;;;;0.57;0.20;;;;;;;;;;5032726;28;20534;-59
2021/06/28 12:58:51;;;;;;;0.82;0.40;;;;;;;;;;5016592;28;20287;-60
2021/06/28 13:01:49;;;;;;;3.00;0.30;;;;;;;;;;5021374;28;20021;-59
2021/06/28 13:04:14;;;;;;;1.25;0.60;;;;;;;;;;4970468;28;20038;-59
2021/06/28 13:06:39;;;;;;;2.15;0.47;;;;;;;;;;4971452;28;20031;-60
2021/06/28 13:09:31;;;;;;;0.65;0.20;;;;;;;;;;4977966;28;20668;-59
2021/06/28 13:11:58;;;;;;;1.27;0.52;;;;;;;;;;4971463;28;20042;-59
2021/06/28 13:14:36;;;;;;;1.15;0.43;;;;;;;;;;4973305;28;20039;-59
2021/06/28 13:17:16;;;;;;;1.27;0.40;;;;;;;;;;4972546;28;20513;-59
2021/06/28 13:19:42;;;;;;;2.40;0.73;;;;;;;;;;4963334;28;20558;-59
2021/06/28 13:22:07;;;;;;;2.08;0.55;;;;;;;;;;4961948;28;20031;-60
2021/06/28 13:24:33;;;;;;;1.08;0.30;;;;;;;;;;4965660;28;20050;-59
2021/06/28 13:27:06;;;;;;;1.10;0.25;;;;;;;;;;4972333;28;20035;-60
2021/06/28 13:29:35;;;;;;;0.82;0.40;;;;;;;;;;4959329;28;20356;-60
2021/06/28 13:32:03;;;;;;;1.15;0.35;;;;;;;;;;4976010;28;20454;-59
2021/06/28 13:34:40;;;;;;;0.75;0.22;;;;;;;;;;4967861;28;20039;-60
2021/06/28 13:37:08;;;;;;;1.55;0.55;;;;;;;;;;4971317;28;20023;-60
2021/06/28 13:39:53;;;;;;;1.65;0.52;;;;;;;;;;4992973;28;20068;-60
2021/06/28 13:42:28;;;;;;;2.20;0.85;;;;;;;;;;5017286;28;20030;-61
2021/06/28 13:45:05;;;;;;;2.70;0.30;;;;;;;;;;5022699;28;20051;-59
2021/06/28 13:47:32;;;;;;;1.10;0.50;;;;;;;;;;5025453;28;20025;-59
2021/06/28 13:49:58;;;;;;;2.13;0.50;;;;;;;;;;5027859;28;20026;-59
2021/06/28 13:52:24;;;;;;;1.17;0.30;;;;;;;;;;5013358;28;20373;-59
2021/06/28 13:54:49;;;;;;;3.10;0.65;;;;;;;;;;5017911;28;20022;-59
2021/06/28 13:57:14;;;;;;;1.67;0.40;;;;;;;;;;5014849;28;20029;-59
2021/06/28 13:59:39;;;;;;;1.48;0.55;;;;;;;;;;5031420;28;20258;-59
2021/06/28 14:02:05;;;;;;;4.43;0.65;;;;;;;;;;5031318;28;20029;-60
2021/06/28 14:04:31;;;;;;;0.82;0.30;;;;;;;;;;5034364;28;20075;-59
2021/06/28 14:06:56;;;;;;;1.40;0.33;;;;;;;;;;5023735;28;20477;-61
2021/06/28 14:09:21;;;;;;;1.27;0.40;;;;;;;;;;5013235;28;20268;-61
2021/06/28 14:11:46;;;;;;;1.17;0.40;;;;;;;;;;5027735;28;20044;-60
2021/06/28 14:14:11;;;;;;;1.10;0.70;;;;;;;;;;5031590;28;20021;-60
2021/06/28 14:16:37;;;;;;;2.40;0.60;;;;;;;;;;5023253;28;20349;-59
2021/06/28 14:19:02;;;;;;;1.00;0.45;;;;;;;;;;5026266;28;20025;-60
2021/06/28 14:21:28;;;;;;;1.30;0.35;;;;;;;;;;5027402;28;20033;-59
2021/06/28 14:23:53;;;;;;;1.30;0.40;;;;;;;;;;5013040;28;20046;-60
2021/06/28 14:26:18;;;;;;;0.37;0.13;;;;;;;;;;5019640;28;20473;-58
2021/06/28 14:28:43;;;;;;;1.10;0.30;;;;;;;;;;5030099;28;20258;-61
2021/06/28 14:31:09;;;;;;;1.40;0.50;;;;;;;;;;5027323;28;20580;-60
2021/06/28 14:33:34;;;;;;;1.33;0.27;;;;;;;;;;5030315;28;20036;-60
2021/06/28 14:35:59;;;;;;;1.05;0.30;;;;;;;;;;5030450;28;20025;-59
2021/06/28 14:38:24;;;;;;;1.27;0.50;;;;;;;;;;5019739;28;20022;-59
2021/06/28 14:40:49;;;;;;;1.33;0.40;;;;;;;;;;5011118;28;20243;-60
2021/06/28 14:43:15;;;;;;;1.40;0.40;;;;;;;;;;5011720;28;20026;-59
2021/06/28 14:45:40;;;;;;;2.08;0.40;;;;;;;;;;5011966;28;20267;-59